sensor_id;sensor_type;location;lat;lon;timestamp;P1;durP1;ratioP1;P2;durP2;ratioP2
75459;SDS011;64039;53.060;9.342;2023-03-25T00:02:20;5.25;;;2.60;;
75459;SDS011;64039;53.060;9.342;2023-03-25T00:04:52;5.82;;;2.35;;
75459;SDS011;64039;53.060;9.342;2023-03-25T00:07:21;5.15;;;2.38;;
75459;SDS011;64039;53.060;9.342;2023-03-25T00:09:47;6.07;;;2.50;;
75459;SDS011;64039;53.060;9.342;2023-03-25T00:12:13;5.68;;;2.00;;
75459;SDS011;64039;53.060;9.342;2023-03-25T00:14:39;6.93;;;2.03;;
75459;SDS011;64039;53.060;9.342;2023-03-25T00:17:06;6.53;;;2.30;;
75459;SDS011;64039;53.060;9.342;2023-03-25T00:19:33;9.57;;;2.58;;
75459;SDS011;64039;53.060;9.342;2023-03-25T00:21:59;6.15;;;2.15;;
75459;SDS011;64039;53.060;9.342;2023-03-25T00:24:25;5.07;;;2.17;;
75459;SDS011;64039;53.060;9.342;2023-03-25T00:26:51;5.43;;;2.17;;
75459;SDS011;64039;53.060;9.342;2023-03-25T00:29:18;6.47;;;2.00;;
75459;SDS011;64039;53.060;9.342;2023-03-25T00:31:45;4.72;;;1.83;;
75459;SDS011;64039;53.060;9.342;2023-03-25T00:34:11;4.80;;;1.80;;
75459;SDS011;64039;53.060;9.342;2023-03-25T00:36:39;5.20;;;1.75;;
75459;SDS011;64039;53.060;9.342;2023-03-25T00:39:05;6.00;;;1.90;;
75459;SDS011;64039;53.060;9.342;2023-03-25T00:41:32;5.32;;;2.00;;
75459;SDS011;64039;53.060;9.342;2023-03-25T00:44:01;6.47;;;2.40;;
75459;SDS011;64039;53.060;9.342;2023-03-25T00:46:29;5.38;;;2.33;;
75459;SDS011;64039;53.060;9.342;2023-03-25T00:48:56;5.50;;;2.60;;
75459;SDS011;64039;53.060;9.342;2023-03-25T00:51:23;6.50;;;2.53;;
75459;SDS011;64039;53.060;9.342;2023-03-25T00:53:54;5.60;;;2.33;;
75459;SDS011;64039;53.060;9.342;2023-03-25T00:56:24;5.68;;;2.25;;
75459;SDS011;64039;53.060;9.342;2023-03-25T00:58:50;3.78;;;2.20;;
75459;SDS011;64039;53.060;9.342;2023-03-25T01:01:17;8.68;;;3.10;;
75459;SDS011;64039;53.060;9.342;2023-03-25T01:03:47;6.13;;;3.03;;
75459;SDS011;64039;53.060;9.342;2023-03-25T01:06:22;5.65;;;2.80;;
75459;SDS011;64039;53.060;9.342;2023-03-25T01:08:55;6.90;;;2.60;;
75459;SDS011;64039;53.060;9.342;2023-03-25T01:11:23;3.83;;;2.15;;
75459;SDS011;64039;53.060;9.342;2023-03-25T01:13:52;6.82;;;2.60;;
75459;SDS011;64039;53.060;9.342;2023-03-25T01:16:19;3.97;;;2.22;;
75459;SDS011;64039;53.060;9.342;2023-03-25T01:18:45;5.07;;;2.35;;
75459;SDS011;64039;53.060;9.342;2023-03-25T01:21:10;6.40;;;2.67;;
75459;SDS011;64039;53.060;9.342;2023-03-25T01:23:36;5.88;;;2.42;;
75459;SDS011;64039;53.060;9.342;2023-03-25T01:26:01;4.38;;;2.10;;
75459;SDS011;64039;53.060;9.342;2023-03-25T01:28:27;6.07;;;2.50;;
75459;SDS011;64039;53.060;9.342;2023-03-25T01:31:26;4.75;;;2.40;;
75459;SDS011;64039;53.060;9.342;2023-03-25T01:33:47;5.78;;;2.25;;
75459;SDS011;64039;53.060;9.342;2023-03-25T01:36:13;6.13;;;2.33;;
75459;SDS011;64039;53.060;9.342;2023-03-25T01:38:40;8.20;;;2.30;;
75459;SDS011;64039;53.060;9.342;2023-03-25T01:41:07;5.68;;;2.30;;
75459;SDS011;64039;53.060;9.342;2023-03-25T01:43:34;4.30;;;1.98;;
75459;SDS011;64039;53.060;9.342;2023-03-25T01:46:00;3.80;;;2.03;;
75459;SDS011;64039;53.060;9.342;2023-03-25T01:50:58;5.25;;;2.15;;
75459;SDS011;64039;53.060;9.342;2023-03-25T01:53:30;4.40;;;1.88;;
75459;SDS011;64039;53.060;9.342;2023-03-25T01:55:58;3.20;;;1.70;;
75459;SDS011;64039;53.060;9.342;2023-03-25T01:58:28;3.72;;;1.70;;
75459;SDS011;64039;53.060;9.342;2023-03-25T02:00:55;5.57;;;1.90;;
75459;SDS011;64039;53.060;9.342;2023-03-25T02:03:21;6.97;;;1.95;;
75459;SDS011;64039;53.060;9.342;2023-03-25T02:05:54;2.80;;;1.45;;
75459;SDS011;64039;53.060;9.342;2023-03-25T02:08:26;4.68;;;1.63;;
75459;SDS011;64039;53.060;9.342;2023-03-25T02:10:56;5.85;;;1.50;;
75459;SDS011;64039;53.060;9.342;2023-03-25T02:13:22;6.03;;;1.83;;
75459;SDS011;64039;53.060;9.342;2023-03-25T02:15:56;4.45;;;1.50;;
75459;SDS011;64039;53.060;9.342;2023-03-25T02:23:54;4.47;;;1.60;;
75459;SDS011;64039;53.060;9.342;2023-03-25T02:29:47;5.30;;;1.73;;
75459;SDS011;64039;53.060;9.342;2023-03-25T02:43:12;4.90;;;2.08;;
75459;SDS011;64039;53.060;9.342;2023-03-25T02:46:08;4.25;;;2.25;;
75459;SDS011;64039;53.060;9.342;2023-03-25T02:48:39;3.70;;;1.90;;
75459;SDS011;64039;53.060;9.342;2023-03-25T02:51:19;6.25;;;2.00;;
75459;SDS011;64039;53.060;9.342;2023-03-25T02:53:49;4.63;;;2.03;;
75459;SDS011;64039;53.060;9.342;2023-03-25T02:56:16;4.70;;;1.90;;
75459;SDS011;64039;53.060;9.342;2023-03-25T02:58:46;4.22;;;2.00;;
75459;SDS011;64039;53.060;9.342;2023-03-25T03:01:14;5.80;;;2.03;;
75459;SDS011;64039;53.060;9.342;2023-03-25T03:03:39;6.60;;;2.30;;
75459;SDS011;64039;53.060;9.342;2023-03-25T03:06:05;3.97;;;1.80;;
75459;SDS011;64039;53.060;9.342;2023-03-25T03:11:37;2.60;;;1.42;;
75459;SDS011;64039;53.060;9.342;2023-03-25T03:17:17;2.13;;;1.45;;
75459;SDS011;64039;53.060;9.342;2023-03-25T03:19:49;4.72;;;1.52;;
75459;SDS011;64039;53.060;9.342;2023-03-25T03:22:50;3.28;;;1.38;;
75459;SDS011;64039;53.060;9.342;2023-03-25T03:27:48;3.78;;;1.30;;
75459;SDS011;64039;53.060;9.342;2023-03-25T03:35:21;4.00;;;1.27;;
75459;SDS011;64039;53.060;9.342;2023-03-25T03:38:14;4.10;;;1.35;;
75459;SDS011;64039;53.060;9.342;2023-03-25T03:40:44;3.95;;;1.20;;
75459;SDS011;64039;53.060;9.342;2023-03-25T03:43:23;3.75;;;1.45;;
75459;SDS011;64039;53.060;9.342;2023-03-25T03:45:56;4.30;;;1.35;;
75459;SDS011;64039;53.060;9.342;2023-03-25T03:48:28;4.30;;;1.40;;
75459;SDS011;64039;53.060;9.342;2023-03-25T03:53:46;4.30;;;1.40;;
75459;SDS011;64039;53.060;9.342;2023-03-25T03:56:19;2.95;;;1.27;;
75459;SDS011;64039;53.060;9.342;2023-03-25T03:58:50;5.82;;;1.38;;
75459;SDS011;64039;53.060;9.342;2023-03-25T04:01:20;4.82;;;1.20;;
75459;SDS011;64039;53.060;9.342;2023-03-25T04:03:58;5.22;;;1.48;;
75459;SDS011;64039;53.060;9.342;2023-03-25T04:06:34;5.15;;;1.38;;
75459;SDS011;64039;53.060;9.342;2023-03-25T04:09:24;6.70;;;1.30;;
75459;SDS011;64039;53.060;9.342;2023-03-25T04:12:15;5.70;;;1.50;;
75459;SDS011;64039;53.060;9.342;2023-03-25T04:14:44;3.67;;;1.35;;
75459;SDS011;64039;53.060;9.342;2023-03-25T04:17:10;4.35;;;1.35;;
75459;SDS011;64039;53.060;9.342;2023-03-25T04:19:36;5.90;;;1.45;;
75459;SDS011;64039;53.060;9.342;2023-03-25T04:22:02;3.28;;;1.30;;
75459;SDS011;64039;53.060;9.342;2023-03-25T04:24:29;5.05;;;1.42;;
75459;SDS011;64039;53.060;9.342;2023-03-25T04:27:01;5.38;;;1.77;;
75459;SDS011;64039;53.060;9.342;2023-03-25T04:29:31;5.88;;;1.48;;
75459;SDS011;64039;53.060;9.342;2023-03-25T04:31:58;6.40;;;1.48;;
75459;SDS011;64039;53.060;9.342;2023-03-25T04:34:24;5.40;;;1.60;;
75459;SDS011;64039;53.060;9.342;2023-03-25T04:36:51;6.00;;;1.58;;
75459;SDS011;64039;53.060;9.342;2023-03-25T04:39:18;7.93;;;1.60;;
75459;SDS011;64039;53.060;9.342;2023-03-25T04:41:46;5.55;;;1.50;;
75459;SDS011;64039;53.060;9.342;2023-03-25T04:44:13;4.35;;;1.70;;
75459;SDS011;64039;53.060;9.342;2023-03-25T04:46:39;5.65;;;1.50;;
75459;SDS011;64039;53.060;9.342;2023-03-25T04:49:05;7.57;;;1.85;;
75459;SDS011;64039;53.060;9.342;2023-03-25T04:54:06;4.45;;;1.33;;
75459;SDS011;64039;53.060;9.342;2023-03-25T04:56:31;5.20;;;1.83;;
75459;SDS011;64039;53.060;9.342;2023-03-25T04:58:57;8.38;;;1.73;;
75459;SDS011;64039;53.060;9.342;2023-03-25T05:01:24;5.93;;;1.65;;
75459;SDS011;64039;53.060;9.342;2023-03-25T05:03:56;5.35;;;1.80;;
75459;SDS011;64039;53.060;9.342;2023-03-25T05:06:28;4.65;;;1.88;;
75459;SDS011;64039;53.060;9.342;2023-03-25T05:08:54;5.97;;;1.45;;
75459;SDS011;64039;53.060;9.342;2023-03-25T05:11:20;6.50;;;1.65;;
75459;SDS011;64039;53.060;9.342;2023-03-25T05:13:45;5.05;;;1.52;;
75459;SDS011;64039;53.060;9.342;2023-03-25T05:16:11;7.75;;;2.10;;
75459;SDS011;64039;53.060;9.342;2023-03-25T05:18:36;7.45;;;1.65;;
75459;SDS011;64039;53.060;9.342;2023-03-25T05:21:02;6.35;;;1.80;;
75459;SDS011;64039;53.060;9.342;2023-03-25T05:23:27;5.75;;;1.65;;
75459;SDS011;64039;53.060;9.342;2023-03-25T05:25:55;6.30;;;1.42;;
75459;SDS011;64039;53.060;9.342;2023-03-25T05:28:21;4.78;;;1.90;;
75459;SDS011;64039;53.060;9.342;2023-03-25T05:30:46;8.70;;;1.88;;
75459;SDS011;64039;53.060;9.342;2023-03-25T05:33:14;5.95;;;1.70;;
75459;SDS011;64039;53.060;9.342;2023-03-25T05:35:41;3.70;;;1.40;;
75459;SDS011;64039;53.060;9.342;2023-03-25T05:38:08;7.45;;;1.88;;
75459;SDS011;64039;53.060;9.342;2023-03-25T05:40:36;8.93;;;1.80;;
75459;SDS011;64039;53.060;9.342;2023-03-25T05:43:02;8.85;;;1.70;;
75459;SDS011;64039;53.060;9.342;2023-03-25T05:45:28;7.32;;;2.03;;
75459;SDS011;64039;53.060;9.342;2023-03-25T05:47:54;5.80;;;1.70;;
75459;SDS011;64039;53.060;9.342;2023-03-25T05:50:20;5.65;;;1.52;;
75459;SDS011;64039;53.060;9.342;2023-03-25T05:52:46;6.32;;;1.60;;
75459;SDS011;64039;53.060;9.342;2023-03-25T05:55:16;7.22;;;1.60;;
75459;SDS011;64039;53.060;9.342;2023-03-25T05:57:44;6.35;;;1.50;;
75459;SDS011;64039;53.060;9.342;2023-03-25T06:00:09;6.90;;;1.70;;
75459;SDS011;64039;53.060;9.342;2023-03-25T06:02:37;6.82;;;1.73;;
75459;SDS011;64039;53.060;9.342;2023-03-25T06:05:04;9.38;;;2.13;;
75459;SDS011;64039;53.060;9.342;2023-03-25T06:07:30;8.27;;;1.58;;
75459;SDS011;64039;53.060;9.342;2023-03-25T06:09:56;7.28;;;1.50;;
75459;SDS011;64039;53.060;9.342;2023-03-25T06:12:22;5.10;;;1.63;;
75459;SDS011;64039;53.060;9.342;2023-03-25T06:14:51;9.38;;;1.70;;
75459;SDS011;64039;53.060;9.342;2023-03-25T06:17:20;2.97;;;1.35;;
75459;SDS011;64039;53.060;9.342;2023-03-25T06:19:47;7.85;;;1.52;;
75459;SDS011;64039;53.060;9.342;2023-03-25T06:22:13;4.88;;;1.40;;
75459;SDS011;64039;53.060;9.342;2023-03-25T06:24:39;5.80;;;1.50;;
75459;SDS011;64039;53.060;9.342;2023-03-25T06:27:07;6.53;;;1.48;;
75459;SDS011;64039;53.060;9.342;2023-03-25T06:29:36;5.95;;;1.70;;
75459;SDS011;64039;53.060;9.342;2023-03-25T06:32:03;4.22;;;1.35;;
75459;SDS011;64039;53.060;9.342;2023-03-25T06:34:29;16.70;;;8.15;;
75459;SDS011;64039;53.060;9.342;2023-03-25T06:36:57;9.20;;;3.80;;
75459;SDS011;64039;53.060;9.342;2023-03-25T06:39:23;8.20;;;4.03;;
75459;SDS011;64039;53.060;9.342;2023-03-25T06:41:48;5.20;;;1.60;;
75459;SDS011;64039;53.060;9.342;2023-03-25T06:44:14;9.50;;;1.40;;
75459;SDS011;64039;53.060;9.342;2023-03-25T06:46:40;5.78;;;1.52;;
75459;SDS011;64039;53.060;9.342;2023-03-25T06:49:06;9.15;;;1.20;;
75459;SDS011;64039;53.060;9.342;2023-03-25T06:51:32;5.93;;;1.30;;
75459;SDS011;64039;53.060;9.342;2023-03-25T06:53:57;3.67;;;1.02;;
75459;SDS011;64039;53.060;9.342;2023-03-25T06:56:23;3.33;;;1.02;;
75459;SDS011;64039;53.060;9.342;2023-03-25T06:58:48;6.97;;;1.30;;
75459;SDS011;64039;53.060;9.342;2023-03-25T07:01:14;2.75;;;1.20;;
75459;SDS011;64039;53.060;9.342;2023-03-25T07:03:39;4.28;;;1.10;;
75459;SDS011;64039;53.060;9.342;2023-03-25T07:06:05;5.57;;;1.50;;
75459;SDS011;64039;53.060;9.342;2023-03-25T07:08:31;5.18;;;1.40;;
75459;SDS011;64039;53.060;9.342;2023-03-25T07:11:04;5.55;;;1.60;;
75459;SDS011;64039;53.060;9.342;2023-03-25T07:13:31;4.70;;;1.70;;
75459;SDS011;64039;53.060;9.342;2023-03-25T07:15:57;6.78;;;2.13;;
75459;SDS011;64039;53.060;9.342;2023-03-25T07:18:23;3.65;;;1.10;;
75459;SDS011;64039;53.060;9.342;2023-03-25T07:20:49;8.57;;;2.08;;
75459;SDS011;64039;53.060;9.342;2023-03-25T07:23:14;4.20;;;1.40;;
75459;SDS011;64039;53.060;9.342;2023-03-25T07:25:40;5.03;;;1.52;;
75459;SDS011;64039;53.060;9.342;2023-03-25T07:28:06;4.72;;;1.40;;
75459;SDS011;64039;53.060;9.342;2023-03-25T07:30:31;4.55;;;1.42;;
75459;SDS011;64039;53.060;9.342;2023-03-25T07:32:57;3.70;;;1.20;;
75459;SDS011;64039;53.060;9.342;2023-03-25T07:35:22;6.53;;;1.73;;
75459;SDS011;64039;53.060;9.342;2023-03-25T07:37:48;3.53;;;1.67;;
75459;SDS011;64039;53.060;9.342;2023-03-25T07:40:13;4.28;;;1.52;;
75459;SDS011;64039;53.060;9.342;2023-03-25T07:42:39;5.10;;;1.30;;
75459;SDS011;64039;53.060;9.342;2023-03-25T07:45:05;8.23;;;1.80;;
75459;SDS011;64039;53.060;9.342;2023-03-25T07:47:31;4.78;;;1.30;;
75459;SDS011;64039;53.060;9.342;2023-03-25T07:49:57;4.88;;;1.15;;
75459;SDS011;64039;53.060;9.342;2023-03-25T07:52:22;4.97;;;1.30;;
75459;SDS011;64039;53.060;9.342;2023-03-25T07:54:47;3.08;;;1.30;;
75459;SDS011;64039;53.060;9.342;2023-03-25T07:57:13;2.30;;;1.10;;
75459;SDS011;64039;53.060;9.342;2023-03-25T07:59:39;4.63;;;1.40;;
75459;SDS011;64039;53.060;9.342;2023-03-25T08:02:04;3.97;;;1.40;;
75459;SDS011;64039;53.060;9.342;2023-03-25T08:04:31;7.63;;;1.33;;
75459;SDS011;64039;53.060;9.342;2023-03-25T08:06:56;7.72;;;1.90;;
75459;SDS011;64039;53.060;9.342;2023-03-25T08:09:22;3.92;;;1.48;;
75459;SDS011;64039;53.060;9.342;2023-03-25T08:11:48;4.47;;;1.50;;
75459;SDS011;64039;53.060;9.342;2023-03-25T08:14:13;5.60;;;1.30;;
75459;SDS011;64039;53.060;9.342;2023-03-25T08:16:39;5.72;;;1.40;;
75459;SDS011;64039;53.060;9.342;2023-03-25T08:19:04;4.40;;;1.20;;
75459;SDS011;64039;53.060;9.342;2023-03-25T08:21:30;6.70;;;1.58;;
75459;SDS011;64039;53.060;9.342;2023-03-25T08:23:56;4.22;;;1.40;;
75459;SDS011;64039;53.060;9.342;2023-03-25T08:26:29;3.45;;;1.42;;
75459;SDS011;64039;53.060;9.342;2023-03-25T08:28:55;3.88;;;1.10;;
75459;SDS011;64039;53.060;9.342;2023-03-25T08:31:22;4.07;;;1.40;;
75459;SDS011;64039;53.060;9.342;2023-03-25T08:33:48;4.72;;;1.45;;
75459;SDS011;64039;53.060;9.342;2023-03-25T08:36:14;4.60;;;1.55;;
75459;SDS011;64039;53.060;9.342;2023-03-25T08:38:44;5.70;;;1.42;;
75459;SDS011;64039;53.060;9.342;2023-03-25T08:41:10;4.40;;;1.50;;
75459;SDS011;64039;53.060;9.342;2023-03-25T08:43:36;1.55;;;0.63;;
75459;SDS011;64039;53.060;9.342;2023-03-25T08:46:02;2.67;;;0.55;;
75459;SDS011;64039;53.060;9.342;2023-03-25T08:48:27;3.03;;;0.68;;
75459;SDS011;64039;53.060;9.342;2023-03-25T08:50:53;1.80;;;0.70;;
75459;SDS011;64039;53.060;9.342;2023-03-25T08:53:18;0.90;;;0.50;;
75459;SDS011;64039;53.060;9.342;2023-03-25T08:55:43;2.05;;;0.50;;
75459;SDS011;64039;53.060;9.342;2023-03-25T08:58:09;1.80;;;0.82;;
75459;SDS011;64039;53.060;9.342;2023-03-25T09:00:35;2.92;;;0.50;;
75459;SDS011;64039;53.060;9.342;2023-03-25T09:03:04;2.58;;;0.50;;
75459;SDS011;64039;53.060;9.342;2023-03-25T09:05:30;1.88;;;0.75;;
75459;SDS011;64039;53.060;9.342;2023-03-25T09:07:56;2.65;;;0.70;;
75459;SDS011;64039;53.060;9.342;2023-03-25T09:10:22;7.07;;;2.20;;
75459;SDS011;64039;53.060;9.342;2023-03-25T09:12:47;2.28;;;0.80;;
75459;SDS011;64039;53.060;9.342;2023-03-25T09:15:13;2.53;;;0.60;;
75459;SDS011;64039;53.060;9.342;2023-03-25T09:17:39;3.28;;;0.88;;
75459;SDS011;64039;53.060;9.342;2023-03-25T09:20:05;3.88;;;1.00;;
75459;SDS011;64039;53.060;9.342;2023-03-25T09:22:35;2.25;;;0.60;;
75459;SDS011;64039;53.060;9.342;2023-03-25T09:25:00;1.50;;;0.60;;
75459;SDS011;64039;53.060;9.342;2023-03-25T09:27:26;3.13;;;0.80;;
75459;SDS011;64039;53.060;9.342;2023-03-25T09:29:52;4.13;;;0.85;;
75459;SDS011;64039;53.060;9.342;2023-03-25T09:32:17;3.10;;;1.00;;
75459;SDS011;64039;53.060;9.342;2023-03-25T09:34:43;4.35;;;0.90;;
75459;SDS011;64039;53.060;9.342;2023-03-25T09:37:09;2.13;;;0.90;;
75459;SDS011;64039;53.060;9.342;2023-03-25T09:39:35;5.65;;;1.15;;
75459;SDS011;64039;53.060;9.342;2023-03-25T09:42:14;3.30;;;0.80;;
75459;SDS011;64039;53.060;9.342;2023-03-25T09:47:51;4.72;;;1.05;;
75459;SDS011;64039;53.060;9.342;2023-03-25T09:50:18;7.47;;;1.20;;
75459;SDS011;64039;53.060;9.342;2023-03-25T09:52:56;3.10;;;1.08;;
75459;SDS011;64039;53.060;9.342;2023-03-25T09:55:28;5.95;;;1.33;;
75459;SDS011;64039;53.060;9.342;2023-03-25T09:58:14;4.78;;;1.35;;
75459;SDS011;64039;53.060;9.342;2023-03-25T10:00:44;5.25;;;1.20;;
75459;SDS011;64039;53.060;9.342;2023-03-25T10:03:26;5.65;;;1.52;;
75459;SDS011;64039;53.060;9.342;2023-03-25T10:06:17;7.32;;;1.63;;
75459;SDS011;64039;53.060;9.342;2023-03-25T10:08:54;3.85;;;1.40;;
75459;SDS011;64039;53.060;9.342;2023-03-25T10:14:49;4.20;;;1.50;;
75459;SDS011;64039;53.060;9.342;2023-03-25T10:22:53;4.38;;;1.33;;
75459;SDS011;64039;53.060;9.342;2023-03-25T10:25:31;6.88;;;1.85;;
75459;SDS011;64039;53.060;9.342;2023-03-25T10:28:04;5.03;;;1.27;;
75459;SDS011;64039;53.060;9.342;2023-03-25T10:30:35;7.45;;;1.85;;
75459;SDS011;64039;53.060;9.342;2023-03-25T10:33:50;6.80;;;1.90;;
75459;SDS011;64039;53.060;9.342;2023-03-25T10:36:04;5.57;;;1.20;;
75459;SDS011;64039;53.060;9.342;2023-03-25T10:38:36;10.55;;;2.38;;
75459;SDS011;64039;53.060;9.342;2023-03-25T10:43:41;5.95;;;1.70;;
75459;SDS011;64039;53.060;9.342;2023-03-25T10:48:46;3.25;;;1.65;;
75459;SDS011;64039;53.060;9.342;2023-03-25T10:51:14;3.50;;;1.35;;
75459;SDS011;64039;53.060;9.342;2023-03-25T10:53:44;6.53;;;1.63;;
75459;SDS011;64039;53.060;9.342;2023-03-25T10:56:17;6.50;;;1.50;;
75459;SDS011;64039;53.060;9.342;2023-03-25T10:58:52;6.60;;;1.95;;
75459;SDS011;64039;53.060;9.342;2023-03-25T11:01:40;8.60;;;1.52;;
75459;SDS011;64039;53.060;9.342;2023-03-25T11:04:10;5.75;;;1.30;;
75459;SDS011;64039;53.060;9.342;2023-03-25T11:06:41;5.95;;;1.60;;
75459;SDS011;64039;53.060;9.342;2023-03-25T11:09:11;7.05;;;1.60;;
75459;SDS011;64039;53.060;9.342;2023-03-25T11:11:51;8.15;;;1.60;;
75459;SDS011;64039;53.060;9.342;2023-03-25T11:14:23;3.95;;;1.40;;
75459;SDS011;64039;53.060;9.342;2023-03-25T11:17:01;5.72;;;1.92;;
75459;SDS011;64039;53.060;9.342;2023-03-25T11:19:30;3.85;;;1.50;;
75459;SDS011;64039;53.060;9.342;2023-03-25T11:22:11;5.90;;;1.50;;
75459;SDS011;64039;53.060;9.342;2023-03-25T11:24:43;5.05;;;1.58;;
75459;SDS011;64039;53.060;9.342;2023-03-25T11:27:21;5.03;;;1.85;;
75459;SDS011;64039;53.060;9.342;2023-03-25T11:29:50;8.45;;;1.60;;
75459;SDS011;64039;53.060;9.342;2023-03-25T11:32:21;4.13;;;1.17;;
75459;SDS011;64039;53.060;9.342;2023-03-25T11:34:50;4.47;;;1.05;;
75459;SDS011;64039;53.060;9.342;2023-03-25T11:37:21;5.82;;;1.33;;
75459;SDS011;64039;53.060;9.342;2023-03-25T11:39:52;3.15;;;0.95;;
75459;SDS011;64039;53.060;9.342;2023-03-25T11:42:36;3.42;;;1.10;;
75459;SDS011;64039;53.060;9.342;2023-03-25T11:45:52;4.63;;;1.42;;
75459;SDS011;64039;53.060;9.342;2023-03-25T11:47:58;2.22;;;0.90;;
75459;SDS011;64039;53.060;9.342;2023-03-25T11:50:35;4.57;;;1.10;;
75459;SDS011;64039;53.060;9.342;2023-03-25T11:53:02;5.50;;;1.27;;
75459;SDS011;64039;53.060;9.342;2023-03-25T11:55:35;9.18;;;2.35;;
75459;SDS011;64039;53.060;9.342;2023-03-25T11:58:11;4.68;;;1.40;;
75459;SDS011;64039;53.060;9.342;2023-03-25T12:00:40;5.28;;;1.52;;
75459;SDS011;64039;53.060;9.342;2023-03-25T12:05:40;4.57;;;1.30;;
75459;SDS011;64039;53.060;9.342;2023-03-25T12:08:13;4.50;;;1.45;;
75459;SDS011;64039;53.060;9.342;2023-03-25T12:13:25;3.03;;;1.02;;
75459;SDS011;64039;53.060;9.342;2023-03-25T12:16:16;4.22;;;1.45;;
75459;SDS011;64039;53.060;9.342;2023-03-25T12:18:56;3.25;;;1.30;;
75459;SDS011;64039;53.060;9.342;2023-03-25T12:21:42;3.33;;;1.20;;
75459;SDS011;64039;53.060;9.342;2023-03-25T12:42:11;6.95;;;1.70;;
75459;SDS011;64039;53.060;9.342;2023-03-25T12:44:55;5.80;;;1.70;;
75459;SDS011;64039;53.060;9.342;2023-03-25T12:47:33;6.88;;;1.67;;
75459;SDS011;64039;53.060;9.342;2023-03-25T12:52:38;6.20;;;2.15;;
75459;SDS011;64039;53.060;9.342;2023-03-25T13:09:18;4.70;;;1.60;;
75459;SDS011;64039;53.060;9.342;2023-03-25T13:11:49;6.63;;;1.50;;
75459;SDS011;64039;53.060;9.342;2023-03-25T13:14:26;7.22;;;2.72;;
75459;SDS011;64039;53.060;9.342;2023-03-25T13:16:58;8.00;;;1.73;;
75459;SDS011;64039;53.060;9.342;2023-03-25T13:19:30;6.30;;;1.58;;
75459;SDS011;64039;53.060;9.342;2023-03-25T13:22:12;6.43;;;1.70;;
75459;SDS011;64039;53.060;9.342;2023-03-25T13:24:50;6.50;;;1.63;;
75459;SDS011;64039;53.060;9.342;2023-03-25T13:27:19;7.68;;;1.92;;
75459;SDS011;64039;53.060;9.342;2023-03-25T13:29:50;3.75;;;1.20;;
75459;SDS011;64039;53.060;9.342;2023-03-25T13:32:24;5.70;;;1.08;;
75459;SDS011;64039;53.060;9.342;2023-03-25T13:34:55;2.00;;;0.68;;
75459;SDS011;64039;53.060;9.342;2023-03-25T13:45:43;3.92;;;0.55;;
75459;SDS011;64039;53.060;9.342;2023-03-25T13:48:25;4.75;;;0.68;;
75459;SDS011;64039;53.060;9.342;2023-03-25T13:51:00;1.77;;;0.50;;
75459;SDS011;64039;53.060;9.342;2023-03-25T13:53:39;2.30;;;0.60;;
75459;SDS011;64039;53.060;9.342;2023-03-25T14:02:09;3.22;;;0.60;;
75459;SDS011;64039;53.060;9.342;2023-03-25T14:07:41;1.38;;;0.60;;
75459;SDS011;64039;53.060;9.342;2023-03-25T14:13:16;4.57;;;0.60;;
75459;SDS011;64039;53.060;9.342;2023-03-25T14:18:27;4.15;;;0.75;;
75459;SDS011;64039;53.060;9.342;2023-03-25T14:20:56;5.00;;;1.00;;
75459;SDS011;64039;53.060;9.342;2023-03-25T14:23:35;3.95;;;1.10;;
75459;SDS011;64039;53.060;9.342;2023-03-25T14:26:02;3.05;;;0.82;;
75459;SDS011;64039;53.060;9.342;2023-03-25T14:31:15;4.43;;;1.20;;
75459;SDS011;64039;53.060;9.342;2023-03-25T14:36:28;2.42;;;0.88;;
75459;SDS011;64039;53.060;9.342;2023-03-25T14:38:55;3.35;;;1.20;;
75459;SDS011;64039;53.060;9.342;2023-03-25T14:42:07;3.92;;;0.85;;
75459;SDS011;64039;53.060;9.342;2023-03-25T14:44:19;3.50;;;0.90;;
75459;SDS011;64039;53.060;9.342;2023-03-25T14:46:45;3.63;;;0.82;;
75459;SDS011;64039;53.060;9.342;2023-03-25T14:49:18;11.60;;;2.70;;
75459;SDS011;64039;53.060;9.342;2023-03-25T14:51:49;5.25;;;1.33;;
75459;SDS011;64039;53.060;9.342;2023-03-25T14:54:31;8.27;;;2.35;;
75459;SDS011;64039;53.060;9.342;2023-03-25T14:59:40;6.32;;;1.10;;
75459;SDS011;64039;53.060;9.342;2023-03-25T15:02:29;2.88;;;0.70;;
75459;SDS011;64039;53.060;9.342;2023-03-25T15:04:58;2.95;;;0.70;;
75459;SDS011;64039;53.060;9.342;2023-03-25T15:07:41;2.63;;;1.10;;
75459;SDS011;64039;53.060;9.342;2023-03-25T15:10:22;3.63;;;1.10;;
75459;SDS011;64039;53.060;9.342;2023-03-25T15:12:54;3.33;;;0.70;;
75459;SDS011;64039;53.060;9.342;2023-03-25T15:15:26;2.85;;;1.02;;
75459;SDS011;64039;53.060;9.342;2023-03-25T15:17:54;2.58;;;0.73;;
75459;SDS011;64039;53.060;9.342;2023-03-25T15:22:45;5.38;;;1.23;;
75459;SDS011;64039;53.060;9.342;2023-03-25T15:25:43;7.82;;;1.85;;
75459;SDS011;64039;53.060;9.342;2023-03-25T15:28:18;3.35;;;1.23;;
75459;SDS011;64039;53.060;9.342;2023-03-25T15:42:08;5.65;;;0.95;;
75459;SDS011;64039;53.060;9.342;2023-03-25T15:47:49;4.80;;;1.05;;
75459;SDS011;64039;53.060;9.342;2023-03-25T15:55:44;3.20;;;0.90;;
75459;SDS011;64039;53.060;9.342;2023-03-25T15:59:22;4.55;;;1.15;;
75459;SDS011;64039;53.060;9.342;2023-03-25T16:01:34;3.88;;;0.80;;
75459;SDS011;64039;53.060;9.342;2023-03-25T16:06:45;4.63;;;1.05;;
75459;SDS011;64039;53.060;9.342;2023-03-25T16:09:21;4.20;;;1.05;;
75459;SDS011;64039;53.060;9.342;2023-03-25T16:11:50;5.70;;;1.40;;
75459;SDS011;64039;53.060;9.342;2023-03-25T16:14:20;5.82;;;1.10;;
75459;SDS011;64039;53.060;9.342;2023-03-25T16:16:50;5.82;;;1.13;;
75459;SDS011;64039;53.060;9.342;2023-03-25T16:19:19;5.72;;;1.00;;
75459;SDS011;64039;53.060;9.342;2023-03-25T16:21:47;5.68;;;0.90;;
75459;SDS011;64039;53.060;9.342;2023-03-25T16:24:16;4.88;;;1.10;;
75459;SDS011;64039;53.060;9.342;2023-03-25T16:26:45;3.67;;;0.98;;
75459;SDS011;64039;53.060;9.342;2023-03-25T16:29:17;5.07;;;1.08;;
75459;SDS011;64039;53.060;9.342;2023-03-25T16:31:51;6.90;;;2.30;;
75459;SDS011;64039;53.060;9.342;2023-03-25T16:34:24;4.45;;;1.50;;
75459;SDS011;64039;53.060;9.342;2023-03-25T16:36:52;8.18;;;1.35;;
75459;SDS011;64039;53.060;9.342;2023-03-25T16:39:20;7.30;;;1.00;;
75459;SDS011;64039;53.060;9.342;2023-03-25T16:41:49;5.43;;;1.40;;
75459;SDS011;64039;53.060;9.342;2023-03-25T16:44:16;4.55;;;0.90;;
75459;SDS011;64039;53.060;9.342;2023-03-25T16:46:46;3.78;;;0.90;;
75459;SDS011;64039;53.060;9.342;2023-03-25T16:49:33;6.03;;;1.00;;
75459;SDS011;64039;53.060;9.342;2023-03-25T16:52:07;1.95;;;0.73;;
75459;SDS011;64039;53.060;9.342;2023-03-25T16:54:43;5.20;;;0.80;;
75459;SDS011;64039;53.060;9.342;2023-03-25T16:57:16;4.60;;;0.93;;
75459;SDS011;64039;53.060;9.342;2023-03-25T16:59:50;4.15;;;0.88;;
75459;SDS011;64039;53.060;9.342;2023-03-25T17:02:22;2.10;;;0.90;;
75459;SDS011;64039;53.060;9.342;2023-03-25T17:04:53;4.30;;;1.00;;
75459;SDS011;64039;53.060;9.342;2023-03-25T17:07:37;5.38;;;0.90;;
75459;SDS011;64039;53.060;9.342;2023-03-25T17:10:11;1.88;;;0.70;;
75459;SDS011;64039;53.060;9.342;2023-03-25T17:13:07;3.95;;;0.98;;
75459;SDS011;64039;53.060;9.342;2023-03-25T17:15:34;4.40;;;1.00;;
75459;SDS011;64039;53.060;9.342;2023-03-25T17:17:59;3.78;;;1.00;;
75459;SDS011;64039;53.060;9.342;2023-03-25T17:20:32;3.85;;;1.02;;
75459;SDS011;64039;53.060;9.342;2023-03-25T17:23:06;3.67;;;1.60;;
75459;SDS011;64039;53.060;9.342;2023-03-25T17:28:39;3.05;;;0.90;;
75459;SDS011;64039;53.060;9.342;2023-03-25T17:34:06;2.15;;;0.70;;
75459;SDS011;64039;53.060;9.342;2023-03-25T17:36:44;2.10;;;0.70;;
75459;SDS011;64039;53.060;9.342;2023-03-25T17:39:16;2.15;;;0.60;;
75459;SDS011;64039;53.060;9.342;2023-03-25T17:41:46;3.90;;;0.90;;
75459;SDS011;64039;53.060;9.342;2023-03-25T17:44:17;3.55;;;0.82;;
75459;SDS011;64039;53.060;9.342;2023-03-25T17:46:43;3.30;;;0.80;;
75459;SDS011;64039;53.060;9.342;2023-03-25T17:49:13;4.05;;;0.70;;